createdAt,value
2022-12-06T00:01:21.337Z,3.53
2022-12-06T00:03:49.377Z,3.47
2022-12-06T00:06:18.487Z,3.50
2022-12-06T00:08:47.119Z,3.77
2022-12-06T00:11:18.975Z,3.23
2022-12-06T00:13:47.015Z,4.23
2022-12-06T00:16:17.163Z,3.80
2022-12-06T00:18:45.298Z,3.70
2022-12-06T00:21:23.473Z,3.57
2022-12-06T00:23:55.919Z,4.20
2022-12-06T00:26:23.798Z,4.60
2022-12-06T00:28:53.187Z,4.30
2022-12-06T00:31:21.489Z,4.43
2022-12-06T00:33:49.130Z,3.83
2022-12-06T00:36:17.732Z,3.57
2022-12-06T00:38:45.269Z,3.60
2022-12-06T00:41:14.029Z,4.00
2022-12-06T00:43:41.418Z,4.57
2022-12-06T00:46:09.910Z,3.57
2022-12-06T00:48:37.343Z,3.57
2022-12-06T00:51:04.809Z,3.90
2022-12-06T00:53:32.107Z,4.67
2022-12-06T00:55:59.597Z,4.20
2022-12-06T00:58:27.106Z,4.43
2022-12-06T01:00:54.588Z,4.27
2022-12-06T01:03:22.109Z,4.30
2022-12-06T01:05:50.765Z,4.47
2022-12-06T01:08:19.151Z,3.80
2022-12-06T01:10:54.080Z,4.57
2022-12-06T01:13:21.327Z,4.23
2022-12-06T01:15:48.658Z,4.03
2022-12-06T01:18:16.128Z,3.67
2022-12-06T01:20:43.646Z,3.30
2022-12-06T01:23:10.977Z,4.17
2022-12-06T01:25:38.458Z,4.23
2022-12-06T01:28:05.915Z,4.27
2022-12-06T01:30:33.655Z,4.07
2022-12-06T01:33:00.977Z,3.93
2022-12-06T01:35:28.202Z,3.57
2022-12-06T01:37:55.638Z,3.50
2022-12-06T01:40:23.141Z,3.33
2022-12-06T01:42:51.624Z,3.50
2022-12-06T01:45:18.889Z,3.60
2022-12-06T01:47:46.375Z,3.07
2022-12-06T01:50:23.384Z,3.30
2022-12-06T01:53:00.141Z,3.27
2022-12-06T01:55:28.682Z,3.43
2022-12-06T01:57:59.929Z,3.20
2022-12-06T02:00:27.435Z,2.87
2022-12-06T02:02:55.762Z,3.30
2022-12-06T02:05:23.313Z,3.37
2022-12-06T02:07:51.200Z,3.33
2022-12-06T02:10:19.157Z,3.63
2022-12-06T02:12:48.545Z,3.43
2022-12-06T02:15:15.866Z,3.37
2022-12-06T02:17:51.747Z,4.03
2022-12-06T02:20:31.627Z,3.30
2022-12-06T02:23:17.760Z,3.97
2022-12-06T02:26:04.831Z,5.03
2022-12-06T02:28:52.599Z,4.20
2022-12-06T02:31:26.423Z,3.90
2022-12-06T02:34:04.902Z,6.30
2022-12-06T02:36:46.565Z,4.30
2022-12-06T02:39:20.331Z,5.50
2022-12-06T02:41:54.371Z,5.33
2022-12-06T02:44:26.982Z,6.60
2022-12-06T02:46:54.589Z,7.00
2022-12-06T02:49:23.466Z,8.07
2022-12-06T02:51:52.702Z,12.20
2022-12-06T02:54:21.164Z,11.50
2022-12-06T02:56:48.757Z,12.33
2022-12-06T02:59:16.014Z,8.30
2022-12-06T03:01:46.234Z,8.90
2022-12-06T03:04:35.102Z,8.83
2022-12-06T03:07:21.896Z,9.53
2022-12-06T03:10:08.000Z,11.30
2022-12-06T03:12:56.380Z,14.83
2022-12-06T03:15:42.604Z,8.90
2022-12-06T03:18:09.959Z,7.63
2022-12-06T03:20:42.962Z,4.63
2022-12-06T03:23:16.642Z,3.20
2022-12-06T03:25:44.766Z,3.03
2022-12-06T03:28:15.294Z,3.03
2022-12-06T03:30:43.799Z,2.83
2022-12-06T03:33:12.691Z,3.20
2022-12-06T03:35:40.425Z,2.87
2022-12-06T03:38:17.637Z,3.33
2022-12-06T03:40:47.215Z,3.40
2022-12-06T03:43:15.057Z,3.57
2022-12-06T03:46:05.947Z,3.93
2022-12-06T03:48:36.748Z,3.63
2022-12-06T03:51:11.654Z,4.13
2022-12-06T03:53:46.718Z,4.13
2022-12-06T03:56:15.050Z,4.00
2022-12-06T03:58:42.410Z,4.33
2022-12-06T04:01:10.895Z,4.80
2022-12-06T04:03:39.322Z,4.20
2022-12-06T04:06:07.370Z,4.90
2022-12-06T04:08:35.328Z,4.63
2022-12-06T04:11:02.817Z,6.10
2022-12-06T04:13:30.090Z,4.97
2022-12-06T04:15:58.578Z,7.47
2022-12-06T04:18:26.622Z,10.67
2022-12-06T04:21:12.418Z,6.07
2022-12-06T04:23:40.552Z,5.20
2022-12-06T04:26:09.036Z,7.63
2022-12-06T04:28:55.431Z,5.77
2022-12-06T04:31:41.553Z,15.53
2022-12-06T04:34:27.652Z,9.53
2022-12-06T04:37:14.215Z,11.73
2022-12-06T04:39:45.513Z,22.00
2022-12-06T04:42:31.740Z,28.27
2022-12-06T04:44:59.033Z,14.93
2022-12-06T04:47:26.556Z,15.87
2022-12-06T04:49:54.085Z,11.23
2022-12-06T04:52:21.932Z,8.60
2022-12-06T04:54:52.349Z,10.47
2022-12-06T04:57:20.733Z,7.87
2022-12-06T04:59:49.464Z,6.13
2022-12-06T05:02:16.794Z,16.10
2022-12-06T05:04:44.117Z,9.70
2022-12-06T05:07:12.009Z,6.17
2022-12-06T05:09:39.573Z,7.80
2022-12-06T05:12:07.091Z,6.20
2022-12-06T05:14:34.458Z,5.23
2022-12-06T05:17:01.902Z,5.83
2022-12-06T05:19:29.333Z,9.73
2022-12-06T05:21:56.669Z,12.30
2022-12-06T05:24:24.059Z,6.20
2022-12-06T05:26:51.540Z,6.13
2022-12-06T05:29:20.053Z,6.27
2022-12-06T05:31:47.756Z,6.93
2022-12-06T05:34:15.554Z,6.27
2022-12-06T05:36:45.420Z,6.63
2022-12-06T05:39:13.227Z,6.77
2022-12-06T05:41:40.527Z,5.53
2022-12-06T05:44:07.883Z,6.80
2022-12-06T05:46:35.263Z,6.53
2022-12-06T05:49:02.808Z,7.97
2022-12-06T05:51:30.197Z,7.20
2022-12-06T05:53:57.547Z,8.30
2022-12-06T05:56:24.938Z,6.93
2022-12-06T05:58:52.229Z,5.77
2022-12-06T06:01:19.781Z,6.13
2022-12-06T06:03:48.088Z,6.10
2022-12-06T06:06:15.662Z,6.63
2022-12-06T06:08:43.009Z,6.40
2022-12-06T06:11:10.750Z,7.90
2022-12-06T06:13:38.061Z,8.60
2022-12-06T06:16:05.522Z,8.63
2022-12-06T06:18:32.790Z,7.80
2022-12-06T06:21:01.127Z,8.13
2022-12-06T06:23:29.518Z,7.57
2022-12-06T06:25:57.119Z,6.70
2022-12-06T06:28:24.686Z,6.43
2022-12-06T06:30:51.980Z,6.97
2022-12-06T06:33:19.467Z,7.17
2022-12-06T06:35:47.117Z,8.07
2022-12-06T06:38:14.610Z,7.70
2022-12-06T06:40:42.040Z,19.43
2022-12-06T06:43:18.712Z,28.47
2022-12-06T06:45:47.175Z,25.30
2022-12-06T06:48:14.596Z,10.13
2022-12-06T06:50:43.149Z,9.73
2022-12-06T06:53:10.737Z,7.70
2022-12-06T06:55:38.186Z,7.70
2022-12-06T06:58:06.211Z,8.23
2022-12-06T07:00:34.116Z,13.47
2022-12-06T07:03:01.747Z,11.00
2022-12-06T07:05:29.085Z,8.03
2022-12-06T07:07:57.856Z,9.07
2022-12-06T07:10:28.538Z,8.03
2022-12-06T07:12:55.873Z,6.73
2022-12-06T07:15:23.524Z,6.00
2022-12-06T07:17:51.624Z,5.90
2022-12-06T07:20:19.482Z,5.67
2022-12-06T07:22:47.206Z,12.20
2022-12-06T07:25:14.722Z,16.33
2022-12-06T07:27:42.000Z,23.93
2022-12-06T07:30:11.308Z,41.83
2022-12-06T07:32:41.843Z,29.63
2022-12-06T07:35:09.487Z,20.93
2022-12-06T07:37:36.778Z,20.60
2022-12-06T07:40:04.368Z,19.13
2022-12-06T07:42:50.154Z,20.17
2022-12-06T07:45:17.550Z,15.67
2022-12-06T07:47:45.583Z,14.20
2022-12-06T07:50:17.852Z,12.20
2022-12-06T07:52:46.822Z,10.83
2022-12-06T07:55:14.133Z,10.97
2022-12-06T07:57:43.636Z,11.07
2022-12-06T08:00:12.333Z,11.13
2022-12-06T08:02:39.938Z,11.67
2022-12-06T08:05:07.387Z,11.47
2022-12-06T08:07:34.745Z,12.17
2022-12-06T08:10:02.660Z,12.07
2022-12-06T08:12:32.297Z,11.90
2022-12-06T08:15:00.227Z,11.07
2022-12-06T08:17:28.235Z,12.23
2022-12-06T08:19:55.631Z,12.10
2022-12-06T08:22:22.942Z,12.87
2022-12-06T08:24:50.394Z,13.33
2022-12-06T08:27:17.908Z,14.37
2022-12-06T08:29:45.566Z,15.10
2022-12-06T08:32:13.313Z,16.13
2022-12-06T08:34:40.657Z,16.73
2022-12-06T08:37:08.016Z,18.37
2022-12-06T08:39:35.294Z,17.17
2022-12-06T08:42:03.751Z,15.07
2022-12-06T08:44:32.504Z,18.20
2022-12-06T08:47:01.862Z,17.03
2022-12-06T08:49:30.415Z,20.57
2022-12-06T08:51:58.630Z,26.47
2022-12-06T08:54:26.774Z,26.07
2022-12-06T08:56:54.514Z,22.03
2022-12-06T08:59:22.102Z,20.53
2022-12-06T09:01:51.639Z,20.13
2022-12-06T09:04:19.016Z,23.63
2022-12-06T09:06:47.232Z,22.67
2022-12-06T09:09:15.911Z,16.47
2022-12-06T09:11:43.725Z,16.93
2022-12-06T09:14:17.853Z,13.93
2022-12-06T09:16:49.446Z,12.83
2022-12-06T09:19:16.828Z,10.13
2022-12-06T09:21:44.478Z,13.60
2022-12-06T09:24:16.380Z,10.10
2022-12-06T09:26:44.142Z,11.87
2022-12-06T09:29:11.813Z,13.67
2022-12-06T09:31:40.485Z,10.80
2022-12-06T09:34:12.654Z,12.63
2022-12-06T09:36:46.402Z,11.73
2022-12-06T09:39:19.194Z,12.00
2022-12-06T09:41:49.668Z,12.17
2022-12-06T09:44:18.028Z,16.37
2022-12-06T09:47:04.241Z,13.63
2022-12-06T09:49:31.538Z,11.00
2022-12-06T09:52:18.025Z,11.53
2022-12-06T09:55:04.603Z,10.30
2022-12-06T09:57:52.625Z,10.67
2022-12-06T10:00:23.291Z,12.37
2022-12-06T10:03:18.250Z,19.97
2022-12-06T10:06:02.977Z,14.90
2022-12-06T10:08:36.596Z,16.17
2022-12-06T10:11:17.242Z,15.23
2022-12-06T10:14:03.312Z,10.30
2022-12-06T10:16:31.110Z,8.97
2022-12-06T10:19:05.455Z,9.47
2022-12-06T10:21:46.230Z,8.63
2022-12-06T10:24:16.476Z,10.20
2022-12-06T10:26:54.333Z,10.30
2022-12-06T10:29:29.504Z,9.13
2022-12-06T10:31:58.909Z,8.83
2022-12-06T10:34:49.067Z,8.73
2022-12-06T10:37:20.354Z,9.80
2022-12-06T10:39:57.022Z,10.13
2022-12-06T10:42:27.331Z,9.10
2022-12-06T10:45:00.542Z,10.40
2022-12-06T10:47:34.102Z,9.67
2022-12-06T10:50:15.174Z,8.97
2022-12-06T10:52:46.278Z,7.77
2022-12-06T10:55:18.446Z,7.73
2022-12-06T10:57:51.088Z,8.30
2022-12-06T11:00:20.765Z,9.90
2022-12-06T11:03:01.389Z,9.43
2022-12-06T11:05:47.362Z,9.87
2022-12-06T11:08:16.522Z,8.80
2022-12-06T11:10:45.789Z,9.07
2022-12-06T11:13:19.483Z,8.73
2022-12-06T11:15:54.239Z,9.03
2022-12-06T11:18:22.156Z,7.40
2022-12-06T11:20:59.733Z,7.57
2022-12-06T11:23:40.228Z,8.03
2022-12-06T11:26:15.274Z,7.40
2022-12-06T11:28:44.604Z,6.30
2022-12-06T11:31:18.199Z,7.27
2022-12-06T11:33:46.485Z,5.83
2022-12-06T11:36:14.268Z,7.07
2022-12-06T11:38:43.212Z,6.80
2022-12-06T11:41:12.741Z,6.90
2022-12-06T11:43:40.678Z,7.43
2022-12-06T11:46:11.669Z,6.30
2022-12-06T11:48:39.002Z,6.33
2022-12-06T11:51:09.028Z,7.47
2022-12-06T11:53:38.294Z,9.33
2022-12-06T11:56:13.959Z,7.20
2022-12-06T11:58:45.050Z,5.87
2022-12-06T12:01:14.702Z,5.47
2022-12-06T12:03:44.473Z,6.00
2022-12-06T12:06:19.305Z,5.57
2022-12-06T12:09:04.898Z,5.97
2022-12-06T12:11:46.002Z,5.70
2022-12-06T12:14:26.140Z,4.40
2022-12-06T12:16:57.187Z,4.63
2022-12-06T12:19:24.672Z,7.33
2022-12-06T12:21:54.417Z,5.17
2022-12-06T12:25:03.278Z,6.10
2022-12-06T12:27:32.764Z,5.20
2022-12-06T12:30:18.967Z,5.30
2022-12-06T12:32:47.125Z,5.73
2022-12-06T12:35:25.510Z,6.67
2022-12-06T12:37:58.032Z,6.67
2022-12-06T12:40:30.124Z,6.10
2022-12-06T12:42:59.247Z,6.00
2022-12-06T12:45:27.768Z,6.27
2022-12-06T12:47:59.161Z,21.57
2022-12-06T12:50:27.274Z,21.07
2022-12-06T12:52:54.829Z,6.00
2022-12-06T12:55:25.633Z,7.70
2022-12-06T12:57:54.248Z,7.93
2022-12-06T13:00:26.222Z,6.37
2022-12-06T13:03:01.874Z,8.40
2022-12-06T13:05:40.740Z,21.43
2022-12-06T13:08:15.850Z,4.57
2022-12-06T13:10:45.355Z,7.53
2022-12-06T13:13:19.914Z,24.30
2022-12-06T13:15:49.096Z,7.57
2022-12-06T13:18:19.467Z,6.40
2022-12-06T13:20:48.296Z,6.97
2022-12-06T13:23:20.761Z,6.80
2022-12-06T13:25:50.505Z,8.80
2022-12-06T13:28:19.897Z,10.77
2022-12-06T13:30:48.559Z,10.63
2022-12-06T13:33:21.594Z,10.57
2022-12-06T13:36:01.628Z,10.87
2022-12-06T13:38:37.465Z,9.50
2022-12-06T13:41:08.359Z,10.67
2022-12-06T13:43:49.941Z,10.40
2022-12-06T13:46:22.668Z,13.20
2022-12-06T13:48:59.467Z,11.50
2022-12-06T13:51:33.101Z,10.83
2022-12-06T13:54:06.730Z,20.27
2022-12-06T13:56:34.225Z,11.83
2022-12-06T13:59:04.267Z,14.93
2022-12-06T14:01:40.048Z,11.03
2022-12-06T14:06:55.920Z,10.93
2022-12-06T14:09:24.133Z,10.23
2022-12-06T14:11:53.137Z,11.67
2022-12-06T14:14:21.884Z,12.33
2022-12-06T14:16:50.917Z,9.67
2022-12-06T14:19:21.388Z,10.97
2022-12-06T14:21:57.444Z,11.23
2022-12-06T14:24:28.063Z,10.37
2022-12-06T14:26:55.595Z,12.73
2022-12-06T14:29:24.201Z,8.97
2022-12-06T14:31:52.349Z,14.70
2022-12-06T14:34:26.947Z,9.57
2022-12-06T14:36:55.282Z,28.00
2022-12-06T14:39:30.092Z,20.13
2022-12-06T14:42:17.841Z,21.83
2022-12-06T14:44:49.628Z,26.63
2022-12-06T14:47:21.615Z,46.87
2022-12-06T14:50:15.014Z,70.87
2022-12-06T14:53:00.944Z,76.53
2022-12-06T14:55:29.829Z,42.53
2022-12-06T14:58:02.415Z,53.77
2022-12-06T15:00:37.337Z,52.10
2022-12-06T15:03:11.850Z,16.27
2022-12-06T15:05:40.680Z,9.40
2022-12-06T15:08:31.365Z,10.37
2022-12-06T15:11:37.797Z,12.30
2022-12-06T15:14:13.372Z,10.63
2022-12-06T15:16:41.085Z,10.23
2022-12-06T15:19:12.453Z,11.20
2022-12-06T15:21:40.300Z,9.20
2022-12-06T15:24:34.549Z,9.67
2022-12-06T15:27:01.905Z,11.17
2022-12-06T15:29:29.152Z,11.37
2022-12-06T15:31:56.626Z,15.00
2022-12-06T15:34:25.959Z,17.07
2022-12-06T15:37:15.279Z,13.23
2022-12-06T15:39:41.048Z,13.77
2022-12-06T15:42:13.416Z,12.63
2022-12-06T15:44:45.668Z,12.03
2022-12-06T15:47:16.161Z,14.40
2022-12-06T15:49:43.922Z,11.13
2022-12-06T15:52:18.895Z,13.57
2022-12-06T15:54:46.691Z,12.43
2022-12-06T15:57:15.610Z,12.97
2022-12-06T15:59:43.135Z,12.17
2022-12-06T16:02:18.640Z,12.30
2022-12-06T16:04:48.600Z,13.33
2022-12-06T16:07:19.164Z,15.07
2022-12-06T16:09:46.882Z,12.73
2022-12-06T16:12:14.221Z,12.57
2022-12-06T16:14:41.445Z,21.27
2022-12-06T16:17:08.844Z,13.63
2022-12-06T16:19:54.801Z,19.23
2022-12-06T16:22:42.102Z,18.17
2022-12-06T16:25:10.011Z,18.23
2022-12-06T16:27:37.308Z,14.13
2022-12-06T16:30:05.127Z,15.13
2022-12-06T16:32:33.249Z,15.07
2022-12-06T16:35:01.184Z,15.77
2022-12-06T16:37:28.764Z,16.37
2022-12-06T16:39:56.656Z,16.93
2022-12-06T16:42:23.899Z,20.53
2022-12-06T16:44:51.538Z,16.67
2022-12-06T16:49:48.456Z,20.77
2022-12-06T16:52:17.053Z,19.63
2022-12-06T16:54:44.452Z,23.23
2022-12-06T16:57:13.270Z,22.60
2022-12-06T16:59:42.454Z,23.83
2022-12-06T17:02:36.918Z,27.03
2022-12-06T17:05:08.356Z,31.40
2022-12-06T17:07:36.538Z,29.80
2022-12-06T17:10:04.155Z,41.57
2022-12-06T17:12:31.529Z,43.03
2022-12-06T17:15:00.423Z,49.00
2022-12-06T17:17:29.813Z,44.93
2022-12-06T17:19:57.194Z,42.00
2022-12-06T17:22:24.613Z,32.97
2022-12-06T17:24:52.053Z,35.27
2022-12-06T17:27:19.855Z,82.67
2022-12-06T17:29:47.391Z,69.87
2022-12-06T17:32:14.805Z,50.60
2022-12-06T17:34:42.325Z,74.93
2022-12-06T17:37:10.162Z,69.90
2022-12-06T17:39:37.483Z,48.43
2022-12-06T17:42:23.507Z,56.40
2022-12-06T17:44:51.894Z,113.97
2022-12-06T17:47:19.829Z,100.87
2022-12-06T17:49:47.216Z,62.07
2022-12-06T17:52:15.963Z,124.70
2022-12-06T17:54:44.350Z,88.23
2022-12-06T17:57:17.708Z,84.70
2022-12-06T17:59:46.425Z,62.67
2022-12-06T18:02:19.245Z,39.90
2022-12-06T18:04:48.483Z,192.80
2022-12-06T18:07:16.553Z,143.23
2022-12-06T18:09:43.853Z,101.33
2022-12-06T18:12:12.226Z,253.07
2022-12-06T18:14:39.662Z,261.57
2022-12-06T18:17:07.167Z,136.83
2022-12-06T18:19:34.719Z,155.37
2022-12-06T18:22:02.079Z,102.03
2022-12-06T18:24:35.401Z,112.23
2022-12-06T18:27:03.993Z,121.50
2022-12-06T18:29:31.387Z,97.00
2022-12-06T18:31:59.008Z,110.57
2022-12-06T18:34:26.603Z,69.30
2022-12-06T18:36:55.122Z,67.17
2022-12-06T18:39:25.234Z,45.57
2022-12-06T18:41:53.445Z,98.40
2022-12-06T18:44:20.905Z,67.00
2022-12-06T18:46:48.690Z,29.33
2022-12-06T18:49:16.199Z,48.83
2022-12-06T18:51:43.619Z,29.43
2022-12-06T18:54:14.152Z,32.30
2022-12-06T18:56:46.376Z,22.03
2022-12-06T18:59:13.765Z,33.70
2022-12-06T19:01:42.517Z,25.60
2022-12-06T19:04:14.372Z,66.87
2022-12-06T19:06:41.828Z,39.53
2022-12-06T19:09:11.135Z,38.17
2022-12-06T19:11:39.339Z,52.50
2022-12-06T19:14:07.087Z,33.20
2022-12-06T19:16:36.247Z,35.87
2022-12-06T19:19:05.344Z,27.70
2022-12-06T19:21:33.512Z,32.43
2022-12-06T19:24:01.111Z,27.77
2022-12-06T19:26:29.614Z,19.93
2022-12-06T19:28:57.372Z,20.40
2022-12-06T19:31:24.830Z,23.10
2022-12-06T19:33:52.804Z,21.63
2022-12-06T19:36:22.414Z,21.47
2022-12-06T19:38:50.144Z,21.30
2022-12-06T19:41:18.533Z,16.80
2022-12-06T19:44:04.429Z,19.00
2022-12-06T19:46:32.350Z,18.73
2022-12-06T19:49:01.502Z,19.57
2022-12-06T19:51:29.326Z,21.80
2022-12-06T19:53:58.110Z,17.30
2022-12-06T19:56:25.889Z,18.00
2022-12-06T19:58:55.093Z,17.13
2022-12-06T20:01:26.288Z,17.50
2022-12-06T20:03:54.594Z,16.17
2022-12-06T20:06:23.581Z,18.63
2022-12-06T20:08:51.321Z,17.00
2022-12-06T20:11:38.465Z,16.03
2022-12-06T20:14:10.839Z,16.53
2022-12-06T20:16:38.911Z,19.17
2022-12-06T20:19:06.955Z,16.93
2022-12-06T20:21:34.247Z,20.00
2022-12-06T20:24:01.657Z,23.80
2022-12-06T20:26:29.660Z,17.07
2022-12-06T20:28:57.022Z,16.93
2022-12-06T20:31:25.564Z,16.37
2022-12-06T20:34:01.693Z,16.30
2022-12-06T20:36:30.465Z,16.17
2022-12-06T20:38:58.405Z,14.07
2022-12-06T20:41:26.665Z,14.77
2022-12-06T20:43:54.159Z,14.20
2022-12-06T20:46:23.220Z,15.23
2022-12-06T20:48:50.505Z,14.93
2022-12-06T20:51:22.116Z,15.07
2022-12-06T20:53:51.467Z,12.90
2022-12-06T20:56:20.203Z,13.67
2022-12-06T20:58:51.431Z,12.77
2022-12-06T21:01:20.439Z,15.83
2022-12-06T21:03:48.382Z,13.13
2022-12-06T21:06:17.108Z,14.20
2022-12-06T21:08:44.663Z,13.43
2022-12-06T21:11:22.627Z,13.47
2022-12-06T21:13:51.571Z,14.70
2022-12-06T21:16:20.268Z,16.27
2022-12-06T21:18:49.467Z,14.60
2022-12-06T21:21:27.947Z,14.20
2022-12-06T21:23:55.400Z,14.17
2022-12-06T21:26:22.704Z,12.83
2022-12-06T21:28:52.884Z,14.70
2022-12-06T21:31:20.318Z,14.97
2022-12-06T21:33:47.684Z,15.47
2022-12-06T21:36:15.358Z,14.53
2022-12-06T21:38:43.905Z,18.27
2022-12-06T21:41:16.080Z,16.40
2022-12-06T21:43:44.194Z,15.10
2022-12-06T21:46:13.472Z,15.07
2022-12-06T21:48:40.948Z,16.57
2022-12-06T21:51:09.799Z,14.33
2022-12-06T21:53:37.625Z,14.27
2022-12-06T21:56:09.020Z,15.33
2022-12-06T21:58:36.876Z,17.43
2022-12-06T22:01:05.480Z,15.50
2022-12-06T22:03:32.831Z,15.83
2022-12-06T22:06:04.389Z,16.60
2022-12-06T22:08:31.595Z,14.10
2022-12-06T22:10:59.087Z,18.13
2022-12-06T22:13:27.165Z,17.20
2022-12-06T22:15:54.509Z,18.03
2022-12-06T22:18:21.825Z,14.50
2022-12-06T22:20:57.283Z,15.33
2022-12-06T22:23:24.784Z,15.90
2022-12-06T22:25:52.344Z,14.90
2022-12-06T22:28:19.732Z,15.73
2022-12-06T22:30:47.024Z,14.67
2022-12-06T22:33:14.376Z,16.27
2022-12-06T22:35:42.058Z,16.27
2022-12-06T22:38:09.556Z,14.70
2022-12-06T22:40:36.854Z,16.33
2022-12-06T22:43:08.173Z,16.63
2022-12-06T22:45:35.672Z,18.07
2022-12-06T22:48:03.108Z,16.03
2022-12-06T22:50:30.510Z,19.13
2022-12-06T22:52:58.014Z,25.77
2022-12-06T22:55:25.341Z,24.87
2022-12-06T22:57:52.628Z,22.23
2022-12-06T23:00:20.243Z,19.20
2022-12-06T23:02:48.078Z,19.77
2022-12-06T23:05:15.634Z,19.87
2022-12-06T23:07:43.078Z,28.97
2022-12-06T23:10:10.786Z,23.53
2022-12-06T23:12:39.773Z,25.23
2022-12-06T23:15:07.346Z,31.37
2022-12-06T23:17:34.751Z,46.27
2022-12-06T23:20:02.241Z,35.33
2022-12-06T23:22:32.521Z,47.07
2022-12-06T23:24:59.984Z,30.73
2022-12-06T23:27:27.381Z,43.53
2022-12-06T23:29:54.757Z,44.40
2022-12-06T23:32:22.047Z,48.43
2022-12-06T23:34:49.658Z,24.27
2022-12-06T23:37:17.025Z,44.27
2022-12-06T23:39:44.344Z,88.00
2022-12-06T23:42:11.686Z,68.10
2022-12-06T23:44:40.215Z,57.00
2022-12-06T23:47:07.680Z,92.77
2022-12-06T23:49:34.925Z,41.40
2022-12-06T23:52:02.352Z,27.50
2022-12-06T23:54:29.692Z,72.97
2022-12-06T23:56:56.965Z,44.10
2022-12-06T23:59:24.917Z,44.27
